Time;durP1;ratioP1;P1;durP2;ratioP2;P2;SDS_P1;SDS_P2;PMS_P1;PMS_P2;Temp;Humidity;BMP_temperature;BMP_pressure;BME280_temperature;BME280_humidity;BME280_pressure;Samples;Min_cycle;Max_cycle;Signal;HPM_P1;HPM_P2
2024/03/24 00:01:27;;;;;;;;;2.33;1.33;;;;;23.73;39.80;101179.03;4910150;28;45343;-74
2024/03/24 00:03:52;;;;;;;;;2.00;1.00;;;;;23.72;39.99;101179.25;4917386;28;45336;-74
2024/03/24 00:06:18;;;;;;;;;1.00;1.00;;;;;23.66;39.99;101172.00;4917273;28;45500;-80
2024/03/24 00:08:43;;;;;;;;;1.67;1.00;;;;;23.71;39.85;101173.09;4917503;28;45445;-77
2024/03/24 00:11:08;;;;;;;;;1.00;1.00;;;;;23.72;39.70;101174.75;4919811;28;45421;-78
2024/03/24 00:13:34;;;;;;;;;2.00;2.00;;;;;23.72;39.59;101173.94;4921059;28;45427;-80
2024/03/24 00:15:59;;;;;;;;;2.00;1.00;;;;;23.60;39.92;101152.31;4920754;28;45991;-77
2024/03/24 00:18:25;;;;;;;;;1.00;1.00;;;;;23.63;39.60;101159.91;4919807;28;45456;-78
2024/03/24 00:20:50;;;;;;;;;2.00;0.00;;;;;23.68;40.06;101167.34;4920774;28;45457;-78
2024/03/24 00:23:15;;;;;;;;;1.00;1.00;;;;;23.72;39.73;101171.28;4920831;28;45502;-74
2024/03/24 00:25:41;;;;;;;;;2.00;2.00;;;;;23.72;39.66;101168.63;4920251;28;46028;-75
2024/03/24 00:28:06;;;;;;;;;2.67;1.00;;;;;23.72;39.66;101169.44;4912978;28;45351;-73
2024/03/24 00:30:32;;;;;;;;;2.00;2.00;;;;;23.72;39.47;101163.31;4920676;28;45445;-74
2024/03/24 00:32:58;;;;;;;;;1.00;1.00;;;;;23.72;39.81;101168.63;4920635;28;45477;-73
2024/03/24 00:35:24;;;;;;;;;0.33;0.33;;;;;23.71;39.64;101165.13;4920399;28;46001;-80
2024/03/24 00:37:50;;;;;;;;;1.00;1.00;;;;;23.68;39.62;101159.38;4919371;28;45425;-74
2024/03/24 00:40:15;;;;;;;;;1.33;1.00;;;;;23.69;39.35;101164.50;4920374;28;45404;-75
2024/03/24 00:42:40;;;;;;;;;2.00;2.00;;;;;23.67;39.56;101155.06;4915419;28;45409;-74
2024/03/24 00:45:08;;;;;;;;;3.00;1.00;;;;;23.66;39.56;101146.25;4919576;28;46025;-74
2024/03/24 00:47:33;;;;;;;;;1.33;1.33;;;;;23.62;39.89;101148.47;4920016;28;45328;-74
2024/03/24 00:49:58;;;;;;;;;1.33;1.00;;;;;23.61;39.73;101146.81;4919293;28;46200;-74
2024/03/24 00:52:24;;;;;;;;;2.67;2.00;;;;;23.69;39.60;101163.66;4919782;28;45400;-75
2024/03/24 00:54:49;;;;;;;;;1.67;1.00;;;;;23.68;39.50;101157.53;4919733;28;51164;-75
2024/03/24 00:57:14;;;;;;;;;2.00;2.00;;;;;23.61;39.43;101159.28;4920077;28;45457;-75
2024/03/24 00:59:40;;;;;;;;;1.00;1.00;;;;;23.41;39.46;101109.34;4919510;28;45298;-76
2024/03/24 01:02:05;;;;;;;;;1.00;1.00;;;;;23.48;39.75;101126.19;4920100;28;45331;-74
2024/03/24 01:04:30;;;;;;;;;3.00;2.00;;;;;23.69;40.13;101153.88;4919477;28;47046;-74
2024/03/24 01:06:56;;;;;;;;;1.33;1.00;;;;;23.69;39.96;101148.56;4916784;28;45470;-75
2024/03/24 01:09:21;;;;;;;;;1.00;1.00;;;;;23.68;39.87;101149.56;4919387;28;45393;-74
2024/03/24 01:11:46;;;;;;;;;2.00;2.00;;;;;23.61;39.89;101135.38;4914665;28;45552;-74
2024/03/24 01:14:12;;;;;;;;;5.00;1.67;;;;;23.67;39.72;101139.94;4915660;28;45426;-75
2024/03/24 01:16:38;;;;;;;;;2.00;2.00;;;;;23.69;39.65;101139.75;4919237;28;45461;-75
2024/03/24 01:19:03;;;;;;;;;1.33;1.33;;;;;23.60;39.92;101125.75;4919177;28;45494;-76
2024/03/24 01:21:28;;;;;;;;;2.00;1.00;;;;;23.66;39.85;101132.97;4919571;28;45346;-77
2024/03/24 01:23:54;;;;;;;;;2.67;2.00;;;;;23.64;39.53;101124.38;4919961;28;45912;-76
2024/03/24 01:26:19;;;;;;;;;4.33;3.00;;;;;23.53;39.33;101115.03;4920210;28;45319;-77
2024/03/24 01:28:44;;;;;;;;;3.00;2.00;;;;;23.59;39.58;101122.28;4920507;28;45426;-77
2024/03/24 01:31:09;;;;;;;;;2.33;1.67;;;;;23.58;39.33;101125.94;4920295;28;45364;-77
2024/03/24 01:33:35;;;;;;;;;2.33;2.33;;;;;23.53;39.52;101123.00;4919765;28;57221;-77
2024/03/24 01:36:00;;;;;;;;;4.00;2.33;;;;;23.31;39.21;101085.72;4920157;28;45815;-77
2024/03/24 01:38:25;;;;;;;;;4.33;3.00;;;;;23.61;39.05;101128.22;4909646;28;45509;-76
2024/03/24 01:40:51;;;;;;;;;2.67;2.67;;;;;23.60;39.15;101125.75;4913528;28;45392;-78
2024/03/24 01:43:17;;;;;;;;;1.00;1.00;;;;;23.55;39.21;101115.66;4939264;28;45358;-77
2024/03/24 01:45:43;;;;;;;;;2.50;1.50;;;;;23.59;39.28;101116.13;4939076;28;45362;-77
2024/03/24 01:48:09;;;;;;;;;2.33;2.33;;;;;23.49;39.24;101105.78;4939342;28;45310;-76
2024/03/24 01:50:35;;;;;;;;;3.00;1.67;;;;;23.57;38.92;101113.69;4939146;28;45591;-76
2024/03/24 01:53:02;;;;;;;;;5.67;2.33;;;;;23.55;39.05;101105.03;4938631;28;46333;-78
2024/03/24 01:55:27;;;;;;;;;2.33;1.00;;;;;23.56;38.73;101106.72;4938968;28;45330;-77
2024/03/24 01:57:52;;;;;;;;;1.00;1.00;;;;;23.42;39.09;101086.28;4939069;28;45372;-77
2024/03/24 02:00:18;;;;;;;;;1.00;1.00;;;;;23.54;39.09;101102.59;4939102;28;45424;-77
2024/03/24 02:02:43;;;;;;;;;1.67;1.00;;;;;23.52;39.18;101094.81;4938791;28;46012;-77
2024/03/24 02:05:08;;;;;;;;;2.33;2.33;;;;;23.52;39.02;101102.78;4938930;28;45429;-77
2024/03/24 02:07:34;;;;;;;;;2.00;2.00;;;;;23.50;38.58;101102.94;4938715;28;45325;-76
2024/03/24 02:09:59;;;;;;;;;2.33;2.00;;;;;23.52;39.04;101103.59;4938865;28;45545;-77
2024/03/24 02:12:25;;;;;;;;;4.67;2.00;;;;;23.48;38.77;101099.63;4938598;28;46095;-77
2024/03/24 02:14:50;;;;;;;;;3.33;2.67;;;;;23.49;38.92;101098.66;4938623;28;45299;-77
2024/03/24 02:17:16;;;;;;;;;2.00;2.00;;;;;23.47;39.01;101097.97;4938914;28;45221;-77
2024/03/24 02:19:41;;;;;;;;;2.00;2.00;;;;;23.39;38.55;101084.81;4938792;28;45583;-77
2024/03/24 02:22:06;;;;;;;;;1.67;1.67;;;;;23.42;38.74;101092.38;4938202;28;46438;-76
2024/03/24 02:24:32;;;;;;;;;1.00;1.00;;;;;23.49;38.75;101095.16;4938634;28;45372;-76
2024/03/24 02:26:57;;;;;;;;;2.00;2.00;;;;;23.47;38.84;101095.31;4938726;28;45363;-76
2024/03/24 02:29:22;;;;;;;;;1.00;1.00;;;;;23.47;38.25;101105.94;4938748;28;45234;-77
2024/03/24 02:31:48;;;;;;;;;2.00;1.00;;;;;23.47;38.75;101097.16;4938537;28;47124;-77
2024/03/24 02:34:13;;;;;;;;;1.67;1.67;;;;;23.44;38.59;101101.00;4937337;28;45374;-76
2024/03/24 02:36:38;;;;;;;;;2.00;1.33;;;;;23.40;38.59;101089.09;4938342;28;45279;-76
2024/03/24 02:39:05;;;;;;;;;1.00;1.00;;;;;23.39;38.64;101084.81;4908218;28;45323;-76
2024/03/24 02:41:31;;;;;;;;;1.00;1.00;;;;;23.45;38.64;101096.50;4922631;28;46915;-77
2024/03/24 02:43:57;;;;;;;;;2.00;2.00;;;;;23.44;38.81;101097.53;4938267;28;45338;-77
2024/03/24 02:46:22;;;;;;;;;2.67;1.00;;;;;23.44;38.52;101094.88;4938409;28;45309;-76
2024/03/24 02:48:47;;;;;;;;;1.00;1.00;;;;;23.43;38.70;101088.72;4938454;28;45383;-77
2024/03/24 02:51:13;;;;;;;;;1.00;1.00;;;;;23.39;38.76;101084.81;4937698;28;46261;-77
2024/03/24 02:53:39;;;;;;;;;4.00;2.00;;;;;23.34;38.34;101076.56;4938087;28;45592;-76
2024/03/24 02:56:05;;;;;;;;;1.67;1.67;;;;;23.42;38.88;101094.25;4938330;28;45326;-76
2024/03/24 02:58:30;;;;;;;;;1.00;1.00;;;;;23.42;38.70;101089.72;4938260;28;45601;-77
2024/03/24 03:00:55;;;;;;;;;1.33;1.33;;;;;23.37;38.30;101090.28;4937853;28;46488;-77
2024/03/24 03:03:21;;;;;;;;;1.00;1.00;;;;;23.31;38.44;101071.63;4953012;28;45322;-77
2024/03/24 03:05:46;;;;;;;;;1.33;1.33;;;;;23.40;38.42;101089.94;4937795;28;45601;-78
2024/03/24 03:08:11;;;;;;;;;2.00;1.00;;;;;23.38;38.50;101088.47;4938057;28;45330;-77
2024/03/24 03:10:37;;;;;;;;;3.67;1.00;;;;;23.40;38.44;101091.75;4937828;28;46017;-76
2024/03/24 03:13:04;;;;;;;;;1.00;1.00;;;;;23.40;38.43;101089.09;4938039;28;45350;-76
2024/03/24 03:15:30;;;;;;;;;1.33;1.33;;;;;23.39;38.24;101090.91;4937992;28;45730;-76
2024/03/24 03:17:55;;;;;;;;;1.00;1.00;;;;;23.39;38.67;101082.16;4937852;28;45435;-77
2024/03/24 03:20:21;;;;;;;;;1.00;1.00;;;;;23.32;38.44;101070.59;4937388;28;46208;-77
2024/03/24 03:22:46;;;;;;;;;0.33;0.33;;;;;23.39;38.80;101087.47;4937787;28;45311;-77
2024/03/24 03:25:12;;;;;;;;;2.00;1.00;;;;;23.38;38.57;101085.81;4937877;28;45366;-76
2024/03/24 03:27:37;;;;;;;;;1.00;1.00;;;;;23.29;38.22;101072.63;4937796;28;45331;-76
2024/03/24 03:30:03;;;;;;;;;1.00;1.00;;;;;23.33;38.84;101070.44;4937693;28;45342;-77
2024/03/24 03:32:29;;;;;;;;;1.00;1.00;;;;;23.37;38.22;101086.81;4937537;28;45468;-77
2024/03/24 03:34:55;;;;;;;;;3.00;2.00;;;;;23.35;38.63;101078.19;4937403;28;45421;-77
2024/03/24 03:37:21;;;;;;;;;1.33;1.33;;;;;23.37;38.42;101084.16;4934892;28;45405;-76
2024/03/24 03:39:46;;;;;;;;;1.00;1.00;;;;;23.36;38.54;101082.50;4899096;28;45298;-76
2024/03/24 03:42:13;;;;;;;;;2.00;1.00;;;;;23.32;38.41;101079.38;4933064;28;45298;-78
2024/03/24 03:44:39;;;;;;;;;1.00;1.00;;;;;23.36;38.71;101082.50;4939391;28;45243;-78
2024/03/24 03:47:05;;;;;;;;;2.00;1.00;;;;;23.35;38.42;101076.38;4943819;28;45493;-77
2024/03/24 03:49:30;;;;;;;;;1.00;1.00;;;;;23.16;38.35;101044.06;4943499;28;45353;-76
2024/03/24 03:51:58;;;;;;;;;1.33;0.00;;;;;23.21;38.50;101053.31;4943655;28;45297;-76
2024/03/24 03:54:24;;;;;;;;;3.67;1.00;;;;;23.24;38.76;101064.38;4943938;28;45367;-77
2024/03/24 03:56:50;;;;;;;;;1.00;1.00;;;;;23.33;38.43;101070.44;4943731;28;45337;-77
2024/03/24 03:59:16;;;;;;;;;1.33;1.33;;;;;23.34;38.54;101076.56;4943540;28;46283;-76
2024/03/24 04:01:41;;;;;;;;;1.00;1.00;;;;;23.21;38.45;101061.28;4943645;28;45350;-77
2024/03/24 04:04:08;;;;;;;;;1.00;1.00;;;;;23.25;38.32;101066.03;4943441;28;45339;-76
2024/03/24 04:06:34;;;;;;;;;0.00;0.00;;;;;23.31;38.53;101075.09;4943870;28;45437;-77
2024/03/24 04:08:59;;;;;;;;;0.00;0.00;;;;;23.29;38.82;101069.13;4943335;28;46198;-77
2024/03/24 04:11:24;;;;;;;;;1.00;1.00;;;;;23.32;38.11;101079.38;4943566;28;45680;-76
2024/03/24 04:13:50;;;;;;;;;1.00;0.33;;;;;23.32;38.57;101087.34;4943656;28;45401;-77
2024/03/24 04:16:20;;;;;;;;;1.33;1.00;;;;;23.33;38.67;101089.03;4943581;28;45434;-76
2024/03/24 04:18:46;;;;;;;;;0.00;0.00;;;;;23.33;38.57;101086.38;4943160;28;46390;-76
2024/03/24 04:21:12;;;;;;;;;1.00;1.00;;;;;23.32;38.29;101084.69;4943344;28;45385;-77
2024/03/24 04:23:37;;;;;;;;;2.00;2.00;;;;;23.28;38.19;101071.00;4943604;28;45390;-76
2024/03/24 04:26:02;;;;;;;;;2.00;1.00;;;;;23.32;38.44;101075.91;4943549;28;45293;-76
2024/03/24 04:28:28;;;;;;;;;1.00;1.00;;;;;23.31;38.42;101076.94;4943238;28;45375;-76
2024/03/24 04:30:53;;;;;;;;;0.67;0.67;;;;;23.07;38.65;101048.66;4943415;28;45293;-77
2024/03/24 04:33:19;;;;;;;;;1.00;1.00;;;;;23.23;38.58;101072.53;4943119;28;45247;-77
2024/03/24 04:35:44;;;;;;;;;0.33;0.33;;;;;23.25;38.46;101073.19;4943358;28;45440;-76
2024/03/24 04:38:09;;;;;;;;;1.00;1.00;;;;;23.15;38.72;101060.19;4926728;28;46239;-76
2024/03/24 04:40:35;;;;;;;;;1.00;1.00;;;;;23.31;38.82;101082.25;4912073;28;45279;-76
2024/03/24 04:43:02;;;;;;;;;0.00;0.00;;;;;23.30;38.55;101070.78;4942259;28;45388;-77
2024/03/24 04:45:27;;;;;;;;;1.33;0.00;;;;;23.29;38.58;101083.25;4942216;28;45445;-75
2024/03/24 04:47:52;;;;;;;;;3.00;1.67;;;;;23.25;38.30;101079.31;4941514;28;45439;-76
2024/03/24 04:50:18;;;;;;;;;0.00;0.00;;;;;23.31;37.99;101090.22;4940696;28;45362;-76
2024/03/24 04:52:44;;;;;;;;;0.67;0.67;;;;;23.30;38.30;101089.38;4942119;28;45433;-76
2024/03/24 04:55:09;;;;;;;;;0.33;0.33;;;;;23.20;38.52;101076.38;4957026;28;46484;-76
2024/03/24 04:57:35;;;;;;;;;2.00;1.00;;;;;23.27;38.30;101087.91;4938180;28;46111;-76
2024/03/24 05:00:00;;;;;;;;;0.33;0.33;;;;;23.26;38.41;101091.56;4938937;28;45334;-77
2024/03/24 05:02:25;;;;;;;;;1.67;1.00;;;;;23.27;38.63;101089.72;4938620;28;45420;-76
2024/03/24 05:04:51;;;;;;;;;1.00;1.00;;;;;23.27;38.63;101092.38;4938836;28;45400;-77
2024/03/24 05:07:17;;;;;;;;;0.00;0.00;;;;;23.28;38.37;101096.72;4938657;28;46371;-77
2024/03/24 05:09:42;;;;;;;;;2.67;0.00;;;;;23.27;38.48;101100.34;4938741;28;45421;-76
2024/03/24 05:12:08;;;;;;;;;1.00;0.33;;;;;23.26;38.39;101096.88;4938854;28;45313;-77
2024/03/24 05:14:35;;;;;;;;;1.00;1.00;;;;;23.16;38.49;101080.41;4938569;28;45528;-76
2024/03/24 05:17:01;;;;;;;;;0.00;0.00;;;;;23.24;38.52;101093.56;4938121;28;45917;-75
2024/03/24 05:19:26;;;;;;;;;1.00;0.00;;;;;23.23;38.55;101089.28;4938499;28;45329;-76
2024/03/24 05:21:51;;;;;;;;;2.00;0.00;;;;;23.20;38.30;101078.22;4938576;28;45330;-76
2024/03/24 05:24:17;;;;;;;;;2.00;0.33;;;;;23.22;38.36;101082.31;4938441;28;45342;-76
2024/03/24 05:26:42;;;;;;;;;1.33;1.00;;;;;23.26;38.02;101074.84;4938287;28;45991;-75
2024/03/24 05:29:07;;;;;;;;;1.00;1.00;;;;;23.22;37.89;101065.56;4938182;28;45333;-76
2024/03/24 05:31:33;;;;;;;;;1.00;1.00;;;;;23.25;38.46;101081.97;4938204;28;45349;-76
2024/03/24 05:33:58;;;;;;;;;2.00;0.00;;;;;23.24;38.28;101074.16;4938457;28;45397;-75
2024/03/24 05:36:24;;;;;;;;;0.67;0.67;;;;;23.21;38.58;101074.56;4938180;28;45437;-77
2024/03/24 05:38:49;;;;;;;;;0.00;0.00;;;;;23.24;38.51;101076.81;4872911;28;1156662;-77
2024/03/24 05:41:15;;;;;;;;;1.00;0.00;;;;;23.14;38.50;101071.78;4919933;28;45381;-77
2024/03/24 05:43:40;;;;;;;;;0.33;0.33;;;;;23.24;38.12;101085.63;4939355;28;45372;-77
2024/03/24 05:46:06;;;;;;;;;0.00;0.00;;;;;23.25;38.30;101089.94;4938983;28;45438;-76
2024/03/24 05:48:34;;;;;;;;;1.33;0.00;;;;;23.25;38.08;101091.75;4939046;28;45394;-76
2024/03/24 05:51:00;;;;;;;;;0.67;0.67;;;;;23.25;38.58;101094.41;4939124;28;45412;-76
2024/03/24 05:53:26;;;;;;;;;1.67;1.00;;;;;23.23;38.31;101097.25;4939087;28;45363;-77
2024/03/24 05:55:51;;;;;;;;;1.00;0.67;;;;;23.24;38.21;101092.75;4938957;28;45391;-77
2024/03/24 05:58:20;;;;;;;;;0.00;0.00;;;;;23.24;38.25;101096.22;4938995;28;45363;-74
2024/03/24 06:00:46;;;;;;;;;0.00;0.00;;;;;23.24;38.31;101100.72;4938895;28;45467;-76
2024/03/24 06:03:12;;;;;;;;;1.00;1.00;;;;;23.17;38.03;101097.97;4938951;28;45378;-76
2024/03/24 06:05:38;;;;;;;;;0.00;0.00;;;;;23.15;38.56;101090.22;4938626;28;46309;-76
2024/03/24 06:08:08;;;;;;;;;0.33;0.00;;;;;23.25;38.52;101107.69;4938743;28;45366;-77
2024/03/24 06:10:34;;;;;;;;;0.00;0.00;;;;;23.22;38.52;101098.25;4938900;28;45432;-78
2024/03/24 06:13:00;;;;;;;;;1.00;0.00;;;;;23.24;38.47;101101.53;4938905;28;45398;-77
2024/03/24 06:15:25;;;;;;;;;1.33;1.00;;;;;23.24;38.22;101095.41;4938544;28;46193;-77
2024/03/24 06:17:51;;;;;;;;;0.00;0.00;;;;;23.22;38.23;101094.75;4938740;28;45362;-77
2024/03/24 06:20:16;;;;;;;;;1.33;1.33;;;;;23.21;38.44;101093.97;4938920;28;45472;-77
2024/03/24 06:22:41;;;;;;;;;1.67;1.00;;;;;23.23;38.84;101091.94;4938889;28;45437;-77
2024/03/24 06:25:07;;;;;;;;;2.00;0.00;;;;;23.23;38.13;101097.25;4938711;28;45374;-74
2024/03/24 06:27:32;;;;;;;;;1.00;1.00;;;;;23.23;38.79;101099.91;4938770;28;45382;-79
2024/03/24 06:29:57;;;;;;;;;2.00;0.00;;;;;22.94;38.39;101051.94;4938324;28;45342;-77
2024/03/24 06:32:23;;;;;;;;;0.00;0.00;;;;;23.14;38.21;101082.41;4938588;28;45355;-77
2024/03/24 06:34:48;;;;;;;;;1.00;1.00;;;;;22.99;38.79;101059.34;4938466;28;47021;-77
2024/03/24 06:37:13;;;;;;;;;0.00;0.00;;;;;23.24;38.75;101087.44;4937358;28;45383;-77
2024/03/24 06:39:39;;;;;;;;;0.33;0.33;;;;;23.20;38.60;101086.16;4900452;28;45332;-76
2024/03/24 06:42:04;;;;;;;;;0.00;0.00;;;;;23.24;38.54;101090.94;4946872;28;45287;-77
2024/03/24 06:44:37;;;;;;;;;1.33;0.00;;;;;23.25;37.97;101099.72;4937758;28;46222;-77
2024/03/24 06:47:02;;;;;;;;;0.00;0.00;;;;;23.21;38.53;101096.63;4938285;28;45405;-76
2024/03/24 06:49:28;;;;;;;;;1.00;1.00;;;;;23.16;38.29;101083.06;4938290;28;45360;-77
2024/03/24 06:51:53;;;;;;;;;0.00;0.00;;;;;23.27;38.20;101100.34;4938349;28;45465;-77
2024/03/24 06:54:18;;;;;;;;;0.67;0.67;;;;;23.28;38.41;101107.31;4938165;28;46294;-77
2024/03/24 06:56:45;;;;;;;;;1.00;1.00;;;;;23.24;38.47;101093.56;4938255;28;45469;-77
2024/03/24 06:59:10;;;;;;;;;0.00;0.00;;;;;23.26;38.15;101099.53;4937965;28;45349;-77
2024/03/24 07:01:35;;;;;;;;;0.33;0.33;;;;;23.31;38.13;101101.66;4937897;28;45266;-77
2024/03/24 07:04:01;;;;;;;;;1.00;0.00;;;;;23.27;38.48;101098.53;4938050;28;46932;-77
2024/03/24 07:06:26;;;;;;;;;0.00;0.00;;;;;23.29;38.11;101095.69;4937900;28;48069;-77
2024/03/24 07:08:51;;;;;;;;;0.00;0.00;;;;;23.23;38.17;101080.50;4938081;28;45474;-77
2024/03/24 07:11:17;;;;;;;;;0.00;0.00;;;;;23.31;38.33;101090.22;4936776;28;45677;-77
2024/03/24 07:13:42;;;;;;;;;2.00;0.00;;;;;23.35;38.33;101094.13;4937489;28;45959;-78
2024/03/24 07:16:08;;;;;;;;;1.67;0.00;;;;;23.32;38.40;101083.88;4937926;28;45376;-76
2024/03/24 07:18:33;;;;;;;;;0.00;0.00;;;;;23.40;38.35;101100.53;4937949;28;45469;-76
2024/03/24 07:21:03;;;;;;;;;0.00;0.00;;;;;23.40;38.27;101105.03;4937326;28;45434;-77
2024/03/24 07:23:29;;;;;;;;;0.00;0.00;;;;;23.40;38.32;101102.38;4937711;28;47083;-76
2024/03/24 07:25:55;;;;;;;;;1.67;1.00;;;;;23.37;38.17;101092.94;4937649;28;45357;-76
2024/03/24 07:28:20;;;;;;;;;0.00;0.00;;;;;23.34;37.94;101090.66;4937216;28;45419;-76
2024/03/24 07:30:46;;;;;;;;;0.67;0.67;;;;;23.38;38.36;101097.25;4937711;28;45358;-76
2024/03/24 07:33:11;;;;;;;;;0.67;0.00;;;;;23.50;38.47;101121.53;4937614;28;46585;-76
2024/03/24 07:35:37;;;;;;;;;0.00;0.00;;;;;23.48;38.26;101117.38;4937694;28;45335;-76
2024/03/24 07:38:03;;;;;;;;;0.00;0.00;;;;;23.52;38.33;101126.69;4923444;28;45340;-76
2024/03/24 07:40:28;;;;;;;;;1.00;0.00;;;;;23.52;37.98;101126.69;4905373;28;45312;-77
2024/03/24 07:42:54;;;;;;;;;1.00;0.00;;;;;23.39;37.83;101108.72;4937705;28;46058;-77
2024/03/24 07:45:19;;;;;;;;;0.00;0.00;;;;;23.52;37.94;101129.34;4937800;28;45353;-76
2024/03/24 07:47:44;;;;;;;;;0.00;0.00;;;;;23.46;38.33;101128.19;4937605;28;45672;-76
2024/03/24 07:50:10;;;;;;;;;0.00;0.00;;;;;23.51;38.04;101136.47;4937588;28;45416;-77
2024/03/24 07:52:35;;;;;;;;;0.67;0.67;;;;;23.49;38.25;101135.84;4937203;28;47104;-77
2024/03/24 07:55:00;;;;;;;;;0.00;0.00;;;;;23.45;38.39;101137.16;4937191;28;45386;-76
2024/03/24 07:57:25;;;;;;;;;0.67;0.67;;;;;23.37;38.22;101119.50;4936308;28;45344;-76
2024/03/24 07:59:52;;;;;;;;;0.33;0.33;;;;;23.20;38.08;101096.78;4937497;28;45873;-76
2024/03/24 08:02:18;;;;;;;;;2.00;0.00;;;;;23.42;38.28;101137.53;4937133;28;46353;-76
2024/03/24 08:04:44;;;;;;;;;0.00;0.00;;;;;23.44;38.49;101135.53;4937236;28;45700;-77
2024/03/24 08:07:09;;;;;;;;;0.67;0.00;;;;;23.45;38.10;101142.47;4937359;28;45542;-77
2024/03/24 08:09:34;;;;;;;;;0.00;0.00;;;;;23.46;37.92;101141.47;4936990;28;45384;-77
2024/03/24 08:12:00;;;;;;;;;1.00;0.00;;;;;23.39;37.85;101133.41;4937134;28;45370;-77
2024/03/24 08:14:25;;;;;;;;;0.33;0.00;;;;;23.42;38.07;101132.22;4937267;28;45645;-77
2024/03/24 08:16:54;;;;;;;;;0.00;0.00;;;;;23.50;38.01;101139.31;4937416;28;45472;-77
2024/03/24 08:19:19;;;;;;;;;0.00;0.00;;;;;23.50;37.89;101136.63;4937270;28;45601;-77
2024/03/24 08:21:45;;;;;;;;;1.00;0.00;;;;;23.54;37.75;101147.75;4936960;28;46668;-77
2024/03/24 08:24:12;;;;;;;;;0.33;0.33;;;;;23.54;38.09;101137.94;4936734;28;45402;-77
2024/03/24 08:26:37;;;;;;;;;1.67;0.00;;;;;23.60;37.96;101139.84;4937186;28;45396;-77
2024/03/24 08:29:03;;;;;;;;;1.33;0.67;;;;;23.63;38.28;101141.31;4936924;28;45478;-77
2024/03/24 08:31:28;;;;;;;;;0.00;0.00;;;;;23.67;38.36;101136.47;4937336;28;46159;-77
2024/03/24 08:33:54;;;;;;;;;1.67;1.67;;;;;23.67;38.77;101131.16;4940346;28;45318;-77
2024/03/24 08:36:19;;;;;;;;;1.00;0.67;;;;;23.69;38.57;101123.81;4940468;28;45726;-76
2024/03/24 08:38:44;;;;;;;;;2.00;0.33;;;;;23.76;38.86;101131.91;4914863;28;45394;-78
2024/03/24 08:41:12;;;;;;;;;2.67;0.67;;;;;23.85;38.19;101133.44;4919155;28;46145;-78
2024/03/24 08:43:38;;;;;;;;;0.33;0.00;;;;;23.89;38.50;101137.34;4940089;28;45365;-77
2024/03/24 08:46:03;;;;;;;;;0.00;0.00;;;;;23.92;38.28;101136.97;4940231;28;45381;-78
2024/03/24 08:48:29;;;;;;;;;2.00;0.33;;;;;23.84;38.03;101114.00;4940022;28;45278;-77
2024/03/24 08:50:54;;;;;;;;;0.00;0.00;;;;;23.94;38.38;101123.53;4939985;28;45971;-78
2024/03/24 08:53:19;;;;;;;;;1.67;0.33;;;;;23.91;38.24;101126.56;4939661;28;45397;-78
2024/03/24 08:55:45;;;;;;;;;1.00;0.00;;;;;24.02;37.97;101130.56;4940171;28;45423;-78
2024/03/24 08:58:10;;;;;;;;;0.00;0.00;;;;;23.84;38.60;101107.84;4940098;28;45517;-78
2024/03/24 09:00:36;;;;;;;;;1.00;0.33;;;;;24.06;38.17;101137.97;4939815;28;45990;-78
2024/03/24 09:03:01;;;;;;;;;0.00;0.00;;;;;24.04;38.16;101132.03;4939798;28;45366;-78
2024/03/24 09:05:26;;;;;;;;;0.67;0.67;;;;;24.07;37.99;101136.94;4939931;28;45370;-78
2024/03/24 09:07:52;;;;;;;;;1.00;1.00;;;;;24.06;38.28;101130.00;4939612;28;45385;-78
2024/03/24 09:10:17;;;;;;;;;0.33;0.33;;;;;24.13;37.80;101139.88;4939442;28;46096;-79
2024/03/24 09:12:42;;;;;;;;;0.00;0.00;;;;;24.15;37.96;101143.16;4939774;28;45348;-78
2024/03/24 09:15:08;;;;;;;;;1.67;1.00;;;;;24.12;38.19;101133.75;4939792;28;45386;-78
2024/03/24 09:17:34;;;;;;;;;1.00;0.00;;;;;24.13;38.23;101129.22;4939791;28;45460;-78
2024/03/24 09:19:59;;;;;;;;;0.33;0.33;;;;;24.19;38.01;101147.09;4939690;28;45429;-78
2024/03/24 09:22:24;;;;;;;;;0.00;0.00;;;;;24.20;38.28;101137.31;4939345;28;45270;-76
2024/03/24 09:24:50;;;;;;;;;0.67;0.67;;;;;24.17;37.89;101147.28;4939755;28;45373;-79
2024/03/24 09:27:15;;;;;;;;;1.00;1.00;;;;;24.12;38.23;101139.06;4939752;28;45511;-76
2024/03/24 09:29:40;;;;;;;;;0.67;0.00;;;;;24.06;38.10;101127.34;4939151;28;46075;-77
2024/03/24 09:32:06;;;;;;;;;0.33;0.33;;;;;24.14;38.35;101149.50;4939332;28;45395;-76
2024/03/24 09:34:31;;;;;;;;;0.00;0.00;;;;;24.13;38.24;101151.31;4939459;28;45551;-75
2024/03/24 09:36:56;;;;;;;;;1.00;1.00;;;;;24.12;38.12;101155.00;4939095;28;45320;-75
2024/03/24 09:39:22;;;;;;;;;1.33;1.00;;;;;24.12;38.46;101164.81;4904166;28;45481;-77
2024/03/24 09:41:47;;;;;;;;;0.00;0.00;;;;;24.11;38.44;101156.00;4928132;28;45324;-78
2024/03/24 09:44:15;;;;;;;;;1.00;0.00;;;;;24.13;38.29;101161.13;4938948;28;45326;-78
2024/03/24 09:46:41;;;;;;;;;1.33;1.00;;;;;24.13;38.32;101164.63;4939349;28;45523;-77
2024/03/24 09:49:11;;;;;;;;;0.00;0.00;;;;;23.84;38.40;101113.16;4938944;28;45314;-78
2024/03/24 09:51:41;;;;;;;;;0.00;0.00;;;;;24.06;38.35;101161.06;4938666;28;45327;-77
2024/03/24 09:54:14;;;;;;;;;1.00;1.00;;;;;24.12;38.13;101170.97;4939122;28;45334;-78
2024/03/24 09:56:40;;;;;;;;;0.67;0.67;;;;;24.12;38.48;101178.09;4939072;28;45441;-76
2024/03/24 09:59:06;;;;;;;;;0.67;0.00;;;;;24.02;38.31;101151.81;4938788;28;45942;-78
2024/03/24 10:01:32;;;;;;;;;0.00;0.00;;;;;23.98;38.20;101145.22;4938707;28;45470;-79
2024/03/24 10:03:58;;;;;;;;;0.00;0.00;;;;;24.05;38.65;101162.91;4939089;28;45318;-77
2024/03/24 10:06:27;;;;;;;;;0.00;0.00;;;;;24.04;38.33;101158.59;4938533;28;45311;-78
2024/03/24 10:08:53;;;;;;;;;0.00;0.00;;;;;24.05;38.59;101159.41;4938713;28;46184;-75
2024/03/24 10:11:29;;;;;;;;;1.00;1.00;;;;;24.02;38.45;101171.22;4938692;28;45401;-77
2024/03/24 10:13:55;;;;;;;;;0.00;0.00;;;;;23.94;38.22;101156.22;4938982;28;45414;-77
2024/03/24 10:16:21;;;;;;;;;2.67;0.00;;;;;24.01;38.28;101171.44;4938872;28;45365;-76
2024/03/24 10:18:48;;;;;;;;;2.00;2.00;;;;;23.93;38.32;101159.06;4938424;28;46351;-77
2024/03/24 10:21:14;;;;;;;;;2.00;1.00;;;;;24.00;38.33;101167.94;4938176;28;45280;-77
2024/03/24 10:23:39;;;;;;;;;2.00;0.00;;;;;23.99;38.28;101162.81;4938778;28;45266;-76
2024/03/24 10:26:06;;;;;;;;;0.00;0.00;;;;;23.84;38.47;101137.91;4938804;28;45217;-77
2024/03/24 10:28:31;;;;;;;;;0.67;0.67;;;;;23.95;38.21;101160.53;4938574;28;46207;-76
2024/03/24 10:31:16;;;;;;;;;0.00;0.00;;;;;23.99;38.36;101154.84;4938261;28;45521;-76
2024/03/24 10:33:42;;;;;;;;;0.67;0.67;;;;;23.92;38.45;101138.81;4938733;28;45377;-76
2024/03/24 10:36:07;;;;;;;;;2.00;1.00;;;;;23.98;38.56;101151.38;4938125;28;45330;-76
2024/03/24 10:38:36;;;;;;;;;2.00;0.33;;;;;23.93;38.28;101159.91;4916218;28;47342;-77
2024/03/24 10:41:03;;;;;;;;;0.00;0.00;;;;;23.99;38.23;101163.66;4915231;28;45494;-77
2024/03/24 10:43:29;;;;;;;;;1.00;1.00;;;;;23.71;38.35;101127.09;4938400;28;45351;-76
2024/03/24 10:45:55;;;;;;;;;0.00;0.00;;;;;23.99;38.11;101173.47;4937108;28;45437;-76
2024/03/24 10:48:31;;;;;;;;;0.00;0.00;;;;;23.95;38.37;101160.53;4938157;28;45394;-78
2024/03/24 10:50:58;;;;;;;;;1.00;1.00;;;;;23.92;38.30;101146.78;4937843;28;45351;-76
2024/03/24 10:53:26;;;;;;;;;0.67;0.33;;;;;23.98;38.18;101154.03;4921256;28;45459;-79
2024/03/24 10:55:55;;;;;;;;;1.67;0.00;;;;;24.04;38.62;101171.91;4917935;28;45361;-76
2024/03/24 10:58:21;;;;;;;;;1.33;1.00;;;;;24.05;38.00;101157.56;4919126;28;46203;-82
2024/03/24 11:00:47;;;;;;;;;1.33;1.00;;;;;24.07;38.31;101154.75;4914295;28;45415;-78
2024/03/24 11:03:14;;;;;;;;;4.00;1.00;;;;;23.91;38.36;101121.25;4899964;28;45368;-76
2024/03/24 11:05:43;;;;;;;;;0.00;0.00;;;;;24.07;38.97;101157.41;4899356;28;45189;-76
2024/03/24 11:08:10;;;;;;;;;1.67;0.67;;;;;24.08;37.16;101159.03;4899469;28;45416;-76
2024/03/24 11:10:35;;;;;;;;;1.00;1.00;;;;;23.56;37.48;101093.44;4899600;28;45292;-77
2024/03/24 11:13:01;;;;;;;;;1.33;1.00;;;;;24.01;37.53;101156.31;4899712;28;45505;-79
2024/03/24 11:15:28;;;;;;;;;0.33;0.33;;;;;24.01;37.43;101166.94;4907073;28;45534;-78
2024/03/24 11:17:53;;;;;;;;;1.00;1.00;;;;;23.93;37.12;101154.59;4918515;28;46246;-80